createdAt,value
2018-01-04T00:00:12.271Z,8.48
2018-01-04T00:02:39.814Z,8.49
2018-01-04T00:05:07.693Z,8.52
2018-01-04T00:07:35.348Z,8.49
2018-01-04T00:10:03.009Z,8.55
2018-01-04T00:12:30.497Z,8.56
2018-01-04T00:14:58.078Z,8.63
2018-01-04T00:17:25.592Z,8.60
2018-01-04T00:19:53.083Z,8.54
2018-01-04T00:22:20.572Z,8.67
2018-01-04T00:24:48.039Z,8.73
2018-01-04T00:27:15.487Z,8.70
2018-01-04T00:29:42.951Z,8.72
2018-01-04T00:32:10.404Z,8.73
2018-01-04T00:34:37.863Z,8.77
2018-01-04T00:37:05.320Z,8.70
2018-01-04T00:39:32.790Z,8.71
2018-01-04T00:42:00.264Z,8.72
2018-01-04T00:44:27.734Z,8.70
2018-01-04T00:46:55.433Z,8.68
2018-01-04T00:49:22.912Z,8.61
2018-01-04T00:51:50.367Z,8.62
2018-01-04T00:54:17.832Z,8.57
2018-01-04T00:56:45.299Z,8.59
2018-01-04T00:59:12.811Z,8.53
2018-01-04T01:01:40.351Z,8.55
2018-01-04T01:04:07.865Z,8.51
2018-01-04T01:06:35.310Z,8.50
2018-01-04T01:09:02.776Z,8.38
2018-01-04T01:11:30.248Z,8.49
2018-01-04T01:13:57.715Z,8.47
2018-01-04T01:16:25.163Z,8.49
2018-01-04T01:18:52.747Z,8.40
2018-01-04T01:21:20.251Z,8.41
2018-01-04T01:23:47.706Z,8.46
2018-01-04T01:26:15.213Z,8.57
2018-01-04T01:28:42.686Z,8.56
2018-01-04T01:31:10.187Z,8.48
2018-01-04T01:33:37.643Z,8.50
2018-01-04T01:36:05.230Z,8.46
2018-01-04T01:38:32.679Z,8.41
2018-01-04T01:41:00.156Z,8.42
2018-01-04T01:43:28.831Z,8.42
2018-01-04T01:45:56.302Z,8.37
2018-01-04T01:48:23.871Z,8.34
2018-01-04T01:50:51.344Z,8.27
2018-01-04T01:53:18.820Z,8.33
2018-01-04T01:55:46.329Z,8.34
2018-01-04T01:58:13.783Z,8.29
2018-01-04T02:00:41.298Z,8.29
2018-01-04T02:03:08.797Z,8.36
2018-01-04T02:05:36.293Z,8.34
2018-01-04T02:08:03.773Z,8.30
2018-01-04T02:10:31.207Z,8.26
2018-01-04T02:12:58.710Z,8.17
2018-01-04T02:15:26.187Z,8.13
2018-01-04T02:18:05.549Z,8.12
2018-01-04T02:20:44.726Z,8.13
2018-01-04T02:26:29.056Z,8.04
2018-01-04T02:28:58.428Z,7.96
2018-01-04T02:31:37.654Z,8.01
2018-01-04T02:34:16.793Z,7.99
2018-01-04T02:40:02.502Z,7.80
2018-01-04T02:42:41.703Z,7.75
2018-01-04T02:48:16.688Z,7.72
2018-01-04T02:50:44.161Z,7.79
2018-01-04T02:53:11.616Z,7.80
2018-01-04T02:55:39.143Z,7.83
2018-01-04T02:58:06.607Z,7.81
2018-01-04T03:00:34.045Z,7.78
2018-01-04T03:03:01.513Z,7.66
2018-01-04T03:05:28.991Z,7.73
2018-01-04T03:07:56.449Z,7.67
2018-01-04T03:10:23.908Z,7.72
2018-01-04T03:12:51.392Z,7.74
2018-01-04T03:15:18.952Z,7.69
2018-01-04T03:17:46.420Z,7.59
2018-01-04T03:20:13.863Z,7.58
2018-01-04T03:22:46.933Z,7.47
2018-01-04T03:28:31.023Z,7.46
2018-01-04T03:31:04.018Z,7.42
2018-01-04T03:36:50.845Z,7.44
2018-01-04T03:39:23.207Z,7.58
2018-01-04T03:41:56.375Z,7.66
2018-01-04T03:44:29.365Z,7.68
2018-01-04T03:47:02.308Z,7.75
2018-01-04T03:52:38.055Z,7.65
2018-01-04T03:55:11.143Z,7.66
2018-01-04T03:57:44.060Z,7.60
2018-01-04T04:00:17.087Z,7.54
2018-01-04T04:02:50.133Z,7.47
2018-01-04T04:05:23.066Z,7.44
2018-01-04T04:07:50.521Z,7.41
2018-01-04T04:10:17.960Z,7.31
2018-01-04T04:12:45.435Z,7.44
2018-01-04T04:15:13.106Z,7.36
2018-01-04T04:17:40.584Z,7.31
2018-01-04T04:20:08.050Z,7.18
2018-01-04T04:22:35.507Z,7.09
2018-01-04T04:25:02.976Z,7.12
2018-01-04T04:27:30.465Z,7.10
2018-01-04T04:29:57.909Z,7.18
2018-01-04T04:32:25.367Z,7.16
2018-01-04T04:34:52.847Z,7.14
2018-01-04T04:37:20.282Z,7.25
2018-01-04T04:39:47.750Z,7.20
2018-01-04T04:42:15.182Z,7.23
2018-01-04T04:44:42.812Z,7.10
2018-01-04T04:47:10.327Z,7.00
2018-01-04T04:49:37.790Z,7.06
2018-01-04T04:52:05.245Z,7.05
2018-01-04T04:54:32.740Z,7.05
2018-01-04T04:57:00.193Z,7.04
2018-01-04T04:59:27.636Z,7.15
2018-01-04T05:01:55.084Z,7.28
2018-01-04T05:04:22.536Z,7.35
2018-01-04T05:06:49.979Z,7.36
2018-01-04T05:09:17.451Z,7.37
2018-01-04T05:11:44.910Z,7.46
2018-01-04T05:14:12.351Z,7.37
2018-01-04T05:16:39.843Z,7.34
2018-01-04T05:19:07.294Z,7.36
2018-01-04T05:21:34.788Z,7.36
2018-01-04T05:24:02.247Z,7.39
2018-01-04T05:26:29.782Z,7.39
2018-01-04T05:28:57.232Z,7.44
2018-01-04T05:31:24.687Z,7.47
2018-01-04T05:33:52.137Z,7.48
2018-01-04T05:36:19.589Z,7.54
2018-01-04T05:38:47.048Z,7.56
2018-01-04T05:41:14.590Z,7.52
2018-01-04T05:43:42.048Z,7.45
2018-01-04T05:46:09.527Z,7.54
2018-01-04T05:48:36.980Z,7.55
2018-01-04T05:51:04.421Z,7.59
2018-01-04T05:53:31.863Z,7.67
2018-01-04T05:55:59.351Z,7.61
2018-01-04T05:58:26.810Z,7.59
2018-01-04T06:00:54.252Z,7.65
2018-01-04T06:03:21.693Z,7.75
2018-01-04T06:05:49.160Z,7.72
2018-01-04T06:08:16.607Z,7.85
2018-01-04T06:10:44.092Z,7.87
2018-01-04T06:13:11.551Z,7.90
2018-01-04T06:15:38.996Z,7.85
2018-01-04T06:18:06.461Z,7.89
2018-01-04T06:20:34.014Z,7.94
2018-01-04T06:23:01.497Z,7.98
2018-01-04T06:25:28.964Z,8.05
2018-01-04T06:27:56.396Z,8.02
2018-01-04T06:30:23.849Z,8.02
2018-01-04T06:32:51.291Z,8.03
2018-01-04T06:35:18.743Z,8.10
2018-01-04T06:37:46.195Z,8.24
2018-01-04T06:40:13.651Z,8.19
2018-01-04T06:42:41.113Z,8.11
2018-01-04T06:45:08.571Z,8.05
2018-01-04T06:47:36.596Z,8.08
2018-01-04T06:50:04.109Z,8.03
2018-01-04T06:52:31.555Z,7.97
2018-01-04T06:54:59.047Z,8.02
2018-01-04T06:57:26.504Z,8.14
2018-01-04T06:59:53.955Z,8.12
2018-01-04T07:02:21.409Z,8.00
2018-01-04T07:04:48.864Z,8.12
2018-01-04T07:07:16.314Z,8.16
2018-01-04T07:09:43.804Z,8.18
2018-01-04T07:12:11.255Z,8.07
2018-01-04T07:14:38.708Z,8.05
2018-01-04T07:17:06.167Z,8.30
2018-01-04T07:19:33.608Z,8.26
2018-01-04T07:22:01.081Z,8.33
2018-01-04T07:24:28.544Z,8.42
2018-01-04T07:26:56.015Z,8.38
2018-01-04T07:29:23.459Z,8.45
2018-01-04T07:31:50.940Z,8.55
2018-01-04T07:34:18.371Z,8.49
2018-01-04T07:36:45.826Z,8.49
2018-01-04T07:39:13.302Z,8.45
2018-01-04T07:41:40.765Z,8.45
2018-01-04T07:44:08.220Z,8.52
2018-01-04T07:46:35.663Z,8.51
2018-01-04T07:49:03.135Z,8.50
2018-01-04T07:51:30.629Z,8.53
2018-01-04T07:53:58.111Z,8.58
2018-01-04T07:56:25.622Z,8.60
2018-01-04T07:58:53.129Z,8.59
2018-01-04T08:01:20.630Z,8.66
2018-01-04T08:03:48.068Z,8.63
2018-01-04T08:06:15.558Z,8.64
2018-01-04T08:08:43.072Z,8.65
2018-01-04T08:11:10.519Z,8.67
2018-01-04T08:13:37.976Z,8.68
2018-01-04T08:16:05.433Z,8.67
2018-01-04T08:18:32.865Z,8.65
2018-01-04T08:21:00.323Z,8.63
2018-01-04T08:23:27.810Z,8.69
2018-01-04T08:25:55.342Z,8.66
2018-01-04T08:28:22.799Z,8.69
2018-01-04T08:30:50.263Z,8.65
2018-01-04T08:33:17.731Z,8.75
2018-01-04T08:35:45.191Z,9.10
2018-01-04T08:38:12.647Z,9.19
2018-01-04T08:40:40.164Z,9.28
2018-01-04T08:43:07.622Z,9.33
2018-01-04T08:45:35.123Z,9.43
2018-01-04T08:48:02.566Z,9.43
2018-01-04T08:50:30.012Z,9.32
2018-01-04T08:52:57.474Z,9.35
2018-01-04T08:55:24.962Z,9.49
2018-01-04T08:57:52.477Z,9.53
2018-01-04T09:00:19.921Z,9.59
2018-01-04T09:02:47.376Z,9.40
2018-01-04T09:05:14.829Z,9.36
2018-01-04T09:07:42.299Z,9.40
2018-01-04T09:10:09.748Z,9.40
2018-01-04T09:12:37.206Z,9.45
2018-01-04T09:15:04.676Z,9.46
2018-01-04T09:17:32.114Z,9.47
2018-01-04T09:19:59.551Z,9.59
2018-01-04T09:22:27.089Z,9.59
2018-01-04T09:24:54.560Z,9.57
2018-01-04T09:27:22.016Z,9.62
2018-01-04T09:29:49.499Z,9.62
2018-01-04T09:32:16.994Z,9.59
2018-01-04T09:34:44.435Z,9.53
2018-01-04T09:37:11.929Z,9.70
2018-01-04T09:39:39.420Z,9.71
2018-01-04T09:42:06.885Z,9.77
2018-01-04T09:44:34.350Z,9.84
2018-01-04T09:47:01.785Z,9.91
2018-01-04T09:49:29.247Z,9.96
2018-01-04T09:51:56.733Z,9.93
2018-01-04T09:54:24.229Z,9.91
2018-01-04T09:56:51.699Z,10.08
2018-01-04T09:59:19.226Z,10.27
2018-01-04T10:01:46.680Z,10.45
2018-01-04T10:04:14.140Z,10.49
2018-01-04T10:06:41.651Z,10.49
2018-01-04T10:09:09.148Z,10.46
2018-01-04T10:11:36.663Z,10.44
2018-01-04T10:14:04.108Z,10.60
2018-01-04T10:16:31.583Z,10.65
2018-01-04T10:18:59.051Z,10.82
2018-01-04T10:21:26.511Z,10.66
2018-01-04T10:23:53.975Z,10.86
2018-01-04T10:26:21.463Z,10.62
2018-01-04T10:28:48.996Z,10.57
2018-01-04T10:31:16.478Z,10.67
2018-01-04T10:33:44.000Z,10.63
2018-01-04T10:36:11.454Z,10.54
2018-01-04T10:38:38.956Z,10.42
2018-01-04T10:41:06.466Z,10.59
2018-01-04T10:43:34.017Z,10.69
2018-01-04T10:46:01.567Z,10.77
2018-01-04T10:48:29.031Z,10.70
2018-01-04T10:50:56.520Z,10.83
2018-01-04T10:53:23.985Z,10.73
2018-01-04T10:55:51.437Z,10.65
2018-01-04T10:58:19.831Z,10.59
2018-01-04T11:00:47.305Z,10.59
2018-01-04T11:03:14.773Z,10.65
2018-01-04T11:05:42.267Z,10.65
2018-01-04T11:08:09.717Z,10.49
2018-01-04T11:10:37.197Z,10.56
2018-01-04T11:13:04.655Z,10.43
2018-01-04T11:15:32.102Z,10.58
2018-01-04T11:17:59.646Z,10.71
2018-01-04T11:20:27.100Z,10.82
2018-01-04T11:22:54.592Z,10.57
2018-01-04T11:25:22.074Z,10.45
2018-01-04T11:27:49.534Z,10.50
2018-01-04T11:30:16.990Z,10.48
2018-01-04T11:32:44.446Z,10.43
2018-01-04T11:35:11.968Z,10.41
2018-01-04T11:37:39.447Z,10.52
2018-01-04T11:40:06.908Z,10.52
2018-01-04T11:42:34.365Z,10.51
2018-01-04T11:45:01.839Z,10.63
2018-01-04T11:47:29.298Z,10.64
2018-01-04T11:49:56.756Z,10.67
2018-01-04T11:52:24.239Z,10.64
2018-01-04T11:54:51.717Z,10.72
2018-01-04T11:57:19.204Z,10.67
2018-01-04T11:59:46.712Z,10.50
2018-01-04T12:02:14.227Z,10.53
2018-01-04T12:04:42.988Z,10.45
2018-01-04T12:07:10.432Z,10.44
2018-01-04T12:09:37.871Z,10.57
2018-01-04T12:12:05.354Z,10.72
2018-01-04T12:14:32.813Z,10.70
2018-01-04T12:17:00.294Z,10.67
2018-01-04T12:19:27.762Z,10.64
2018-01-04T12:21:55.294Z,10.56
2018-01-04T12:24:22.944Z,10.59
2018-01-04T12:26:50.416Z,10.70
2018-01-04T12:29:17.863Z,10.58
2018-01-04T12:31:45.335Z,10.47
2018-01-04T12:34:12.856Z,10.41
2018-01-04T12:36:40.312Z,10.26
2018-01-04T12:39:07.787Z,10.35
2018-01-04T12:41:35.292Z,10.39
2018-01-04T12:44:02.776Z,10.46
2018-01-04T12:46:31.288Z,10.47
2018-01-04T12:48:58.762Z,10.38
2018-01-04T12:51:26.239Z,10.40
2018-01-04T12:53:53.688Z,10.40
2018-01-04T12:56:21.152Z,10.41
2018-01-04T12:58:48.687Z,10.48
2018-01-04T13:01:16.216Z,10.38
2018-01-04T13:03:43.752Z,10.35
2018-01-04T13:06:11.221Z,10.36
2018-01-04T13:08:38.666Z,10.37
2018-01-04T13:11:06.140Z,10.37
2018-01-04T13:13:33.603Z,10.37
2018-01-04T13:16:01.072Z,10.42
2018-01-04T13:18:28.740Z,10.49
2018-01-04T13:20:56.237Z,10.50
2018-01-04T13:23:23.694Z,10.40
2018-01-04T13:25:51.154Z,10.41
2018-01-04T13:28:18.770Z,10.41
2018-01-04T13:30:49.140Z,10.30
2018-01-04T13:33:16.684Z,10.21
2018-01-04T13:35:44.210Z,10.13
2018-01-04T13:38:11.765Z,10.19
2018-01-04T13:40:39.284Z,10.25
2018-01-04T13:43:06.753Z,10.24
2018-01-04T13:45:34.248Z,10.22
2018-01-04T13:48:01.709Z,10.24
2018-01-04T13:50:29.209Z,10.26
2018-01-04T13:52:56.674Z,10.20
2018-01-04T13:55:24.329Z,10.15
2018-01-04T13:57:51.869Z,10.07
2018-01-04T14:00:19.414Z,10.06
2018-01-04T14:05:22.189Z,9.99
2018-01-04T14:07:49.657Z,9.98
2018-01-04T14:10:17.126Z,9.90
2018-01-04T14:12:45.378Z,9.90
2018-01-04T14:15:12.848Z,9.87
2018-01-04T14:17:40.325Z,9.85
2018-01-04T14:20:07.825Z,9.84
2018-01-04T14:22:35.303Z,9.83
2018-01-04T14:25:02.851Z,9.78
2018-01-04T14:27:30.316Z,9.71
2018-01-04T14:29:57.772Z,9.68
2018-01-04T14:32:25.232Z,9.74
2018-01-04T14:34:53.791Z,9.75
2018-01-04T14:37:21.307Z,9.70
2018-01-04T14:39:48.850Z,9.64
2018-01-04T14:42:16.291Z,9.59
2018-01-04T14:44:43.745Z,9.54
2018-01-04T14:47:11.207Z,9.52
2018-01-04T14:49:38.647Z,9.51
2018-01-04T14:52:06.120Z,9.51
2018-01-04T14:54:33.568Z,9.52
2018-01-04T14:57:01.035Z,9.50
2018-01-04T14:59:28.503Z,9.54
2018-01-04T15:01:55.953Z,9.47
2018-01-04T15:04:23.423Z,9.41
2018-01-04T15:06:50.866Z,9.39
2018-01-04T15:09:18.401Z,9.38
2018-01-04T15:11:45.867Z,9.35
2018-01-04T15:14:13.326Z,9.32
2018-01-04T15:16:40.784Z,9.31
2018-01-04T15:19:08.283Z,9.26
2018-01-04T15:21:35.751Z,9.23
2018-01-04T15:24:03.208Z,9.19
2018-01-04T15:26:30.689Z,9.25
2018-01-04T15:28:58.578Z,9.25
2018-01-04T15:31:26.036Z,9.23
2018-01-04T15:33:53.506Z,9.21
2018-01-04T15:36:20.947Z,9.14
2018-01-04T15:38:48.416Z,9.10
2018-01-04T15:41:15.875Z,9.08
2018-01-04T15:43:43.331Z,9.04
2018-01-04T15:46:11.776Z,9.03
2018-01-04T15:48:39.294Z,9.03
2018-01-04T15:51:06.782Z,9.02
2018-01-04T15:53:34.326Z,9.00
2018-01-04T15:56:01.804Z,8.99
2018-01-04T15:58:29.280Z,8.95
2018-01-04T16:00:56.915Z,8.93
2018-01-04T16:03:24.425Z,8.88
2018-01-04T16:05:51.917Z,8.84
2018-01-04T16:08:19.800Z,8.78
2018-01-04T16:10:47.279Z,8.75
2018-01-04T16:13:14.736Z,8.70
2018-01-04T16:15:42.195Z,8.64
2018-01-04T16:18:09.682Z,8.63
2018-01-04T16:20:37.125Z,8.63
2018-01-04T16:23:04.597Z,8.59
2018-01-04T16:25:32.057Z,8.54
2018-01-04T16:27:59.520Z,8.51
2018-01-04T16:30:28.535Z,8.50
2018-01-04T16:32:56.033Z,8.55
2018-01-04T16:35:23.492Z,8.54
2018-01-04T16:37:50.955Z,8.59
2018-01-04T16:40:18.391Z,8.61
2018-01-04T16:42:46.091Z,8.55
2018-01-04T16:45:13.738Z,8.53
2018-01-04T16:47:41.163Z,8.47
2018-01-04T16:50:08.708Z,8.52
2018-01-04T16:52:36.190Z,8.56
2018-01-04T16:55:03.745Z,8.50
2018-01-04T16:57:32.483Z,8.44
2018-01-04T16:59:59.999Z,8.35
2018-01-04T17:02:27.532Z,8.33
2018-01-04T17:04:55.016Z,8.32
2018-01-04T17:07:22.536Z,8.34
2018-01-04T17:09:50.382Z,8.35
2018-01-04T17:12:17.974Z,8.31
2018-01-04T17:14:45.453Z,8.33
2018-01-04T17:17:12.985Z,8.36
2018-01-04T17:19:40.517Z,8.33
2018-01-04T17:22:08.079Z,8.38
2018-01-04T17:24:36.711Z,8.34
2018-01-04T17:27:06.562Z,8.31
2018-01-04T17:29:34.123Z,8.26
2018-01-04T17:32:01.662Z,8.19
2018-01-04T17:34:29.139Z,8.17
2018-01-04T17:36:56.587Z,8.14
2018-01-04T17:39:24.063Z,8.11
2018-01-04T17:41:51.546Z,8.13
2018-01-04T17:44:19.755Z,8.18
2018-01-04T17:46:47.251Z,8.13
2018-01-04T17:49:14.720Z,8.13
2018-01-04T17:51:42.181Z,8.13
2018-01-04T17:54:09.709Z,8.13
2018-01-04T17:56:37.140Z,8.11
2018-01-04T17:59:04.597Z,8.09
2018-01-04T18:01:32.080Z,8.08
2018-01-04T18:03:59.579Z,8.08
2018-01-04T18:06:27.819Z,8.18
2018-01-04T18:08:55.304Z,8.15
2018-01-04T18:11:23.473Z,8.13
2018-01-04T18:13:50.924Z,8.10
2018-01-04T18:16:18.461Z,8.12
2018-01-04T18:18:45.979Z,8.08
2018-01-04T18:21:13.511Z,7.99
2018-01-04T18:23:40.995Z,7.92
2018-01-04T18:26:08.452Z,7.87
2018-01-04T18:28:36.104Z,7.87
2018-01-04T18:31:03.575Z,7.87
2018-01-04T18:33:31.061Z,7.90
2018-01-04T18:35:58.518Z,7.87
2018-01-04T18:38:26.013Z,7.96
2018-01-04T18:40:53.468Z,8.00
2018-01-04T18:43:20.983Z,8.02
2018-01-04T18:45:48.464Z,7.98
2018-01-04T18:48:15.939Z,7.93
2018-01-04T18:50:43.463Z,7.88
2018-01-04T18:53:10.928Z,7.82
2018-01-04T18:55:38.386Z,7.73
2018-01-04T18:58:05.923Z,7.67
2018-01-04T19:00:33.405Z,7.64
2018-01-04T19:03:00.889Z,7.59
2018-01-04T19:05:28.393Z,7.64
2018-01-04T19:07:55.932Z,7.60
2018-01-04T19:10:23.452Z,7.53
2018-01-04T19:12:51.078Z,7.46
2018-01-04T19:15:18.583Z,7.46
2018-01-04T19:17:46.092Z,7.48
2018-01-04T19:20:14.211Z,7.53
2018-01-04T19:22:41.753Z,7.47
2018-01-04T19:25:09.426Z,7.43
2018-01-04T19:27:37.121Z,7.45
2018-01-04T19:30:04.887Z,7.44
2018-01-04T19:32:34.138Z,7.53
2018-01-04T19:35:01.843Z,7.56
2018-01-04T19:37:29.490Z,7.58
2018-01-04T19:39:57.206Z,7.65
2018-01-04T19:42:26.871Z,7.57
2018-01-04T19:44:54.655Z,7.47
2018-01-04T19:47:22.413Z,7.45
2018-01-04T19:49:50.274Z,7.39
2018-01-04T19:52:17.916Z,7.54
2018-01-04T19:54:46.013Z,7.48
2018-01-04T19:57:14.598Z,7.40
2018-01-04T19:59:42.426Z,7.37
2018-01-04T20:02:10.270Z,7.37
2018-01-04T20:04:38.057Z,7.45
2018-01-04T20:07:05.720Z,7.48
2018-01-04T20:09:33.715Z,7.54
2018-01-04T20:12:01.477Z,7.69
2018-01-04T20:14:29.331Z,7.72
2018-01-04T20:16:57.266Z,7.84
2018-01-04T20:19:25.141Z,7.81
2018-01-04T20:21:52.952Z,7.83
2018-01-04T20:24:20.743Z,7.85
2018-01-04T20:26:48.550Z,7.90
2018-01-04T20:29:16.348Z,7.89
2018-01-04T20:31:44.253Z,7.99
2018-01-04T20:34:12.047Z,7.96
2018-01-04T20:36:39.835Z,7.94
2018-01-04T20:39:07.651Z,7.98
2018-01-04T20:41:35.434Z,7.97
2018-01-04T20:44:02.988Z,8.02
2018-01-04T20:46:30.781Z,7.90
2018-01-04T20:48:58.466Z,7.92
2018-01-04T20:51:26.246Z,7.90
2018-01-04T20:53:54.070Z,7.83
2018-01-04T20:56:21.915Z,7.84
2018-01-04T20:58:50.129Z,7.85
2018-01-04T21:01:17.658Z,7.83
2018-01-04T21:03:45.345Z,7.80
2018-01-04T21:06:13.063Z,7.78
2018-01-04T21:08:40.840Z,7.82
2018-01-04T21:11:08.561Z,7.83
2018-01-04T21:13:36.340Z,7.80
2018-01-04T21:16:04.064Z,7.79
2018-01-04T21:18:32.712Z,7.80
2018-01-04T21:21:01.380Z,7.78
2018-01-04T21:23:29.670Z,7.84
2018-01-04T21:25:57.929Z,7.81
2018-01-04T21:28:25.703Z,7.73
2018-01-04T21:30:53.513Z,7.77
2018-01-04T21:33:24.861Z,7.81
2018-01-04T21:35:52.716Z,7.75
2018-01-04T21:38:20.648Z,7.76
2018-01-04T21:40:48.264Z,7.70
2018-01-04T21:43:15.961Z,7.64
2018-01-04T21:45:43.805Z,7.68
2018-01-04T21:48:11.506Z,7.57
2018-01-04T21:50:39.177Z,7.48
2018-01-04T21:53:06.790Z,7.43
2018-01-04T21:55:34.273Z,7.47
2018-01-04T21:58:01.859Z,7.41
2018-01-04T22:00:29.953Z,7.33
2018-01-04T22:02:57.493Z,7.33
2018-01-04T22:05:25.002Z,7.32
2018-01-04T22:07:52.643Z,7.36
2018-01-04T22:10:20.126Z,7.30
2018-01-04T22:12:47.716Z,7.23
2018-01-04T22:15:15.369Z,7.18
2018-01-04T22:17:43.017Z,7.19
2018-01-04T22:20:10.617Z,7.24
2018-01-04T22:22:38.275Z,7.14
2018-01-04T22:25:11.402Z,7.20
2018-01-04T22:27:39.040Z,7.17
2018-01-04T22:30:06.573Z,7.13
2018-01-04T22:32:34.782Z,7.08
2018-01-04T22:35:02.361Z,7.01
2018-01-04T22:37:29.966Z,6.97
2018-01-04T22:39:57.565Z,6.97
2018-01-04T22:42:25.381Z,6.90
2018-01-04T22:44:52.882Z,6.89
2018-01-04T22:47:20.458Z,6.92
2018-01-04T22:49:47.947Z,6.78
2018-01-04T22:52:15.455Z,6.78
2018-01-04T22:54:42.964Z,6.81
2018-01-04T22:57:10.507Z,6.86
2018-01-04T22:59:38.050Z,6.82
2018-01-04T23:02:05.656Z,6.79
2018-01-04T23:04:33.812Z,6.71
2018-01-04T23:07:01.332Z,6.74
2018-01-04T23:09:28.958Z,6.75
2018-01-04T23:11:56.570Z,6.84
2018-01-04T23:14:24.119Z,6.89
2018-01-04T23:16:51.631Z,6.80
2018-01-04T23:19:19.139Z,6.73
2018-01-04T23:21:46.676Z,6.74
2018-01-04T23:24:14.138Z,6.69
2018-01-04T23:26:41.596Z,6.69
2018-01-04T23:29:09.109Z,6.74
2018-01-04T23:31:36.653Z,6.77
2018-01-04T23:34:04.145Z,6.86
2018-01-04T23:36:31.625Z,6.87
2018-01-04T23:38:59.095Z,6.90
2018-01-04T23:41:26.613Z,6.88
2018-01-04T23:43:54.109Z,6.89
2018-01-04T23:46:21.592Z,6.74
2018-01-04T23:48:49.176Z,6.79
2018-01-04T23:51:16.887Z,6.76
2018-01-04T23:53:44.447Z,6.73
2018-01-04T23:56:12.961Z,6.82
2018-01-04T23:58:40.474Z,6.78
